Belleville, Canada
Current Conditions -  °F | °C
As of 10:00 AM on Wednesday 22 Oct 2014 (Local Time) from CYTR Reporting Station
Broken Clouds Broken Clouds  
Wind Chill: 38°   Ceiling: 5200
Heat Index: 45°   Visibility: 15mi
Dew Point: 37°   Wind: 15mph
Humidity: 76%   Direction: 40°NE
Pressure: 30.24"   Gusts: NA
Location:  44.16°N, 77.38°W
Report Text: CYTR 221400Z 04013KT 15SM SCT018 BKN052 07/03 A3024 RMK SC4SC2 WND ESTD SLP245
Loading
Personal Weather Stations






























Interactive Weather Map
Tropical Storm Tracking
New forecast layout! Learn more

10-Day Weather Forecast

Advertisements
Track Severe Weather on mobile